Time;durP1;ratioP1;P1;durP2;ratioP2;P2;SDS_P1;SDS_P2;PMS_P1;PMS_P2;Temp;Humidity;BMP_temperature;BMP_pressure;BME280_temperature;BME280_humidity;BME280_pressure;Samples;Min_cycle;Max_cycle;Signal;HPM_P1;HPM_P2
2020/12/24 00:02:18;;;;;;;0.60;0.60;;;11.20;99.90;;;;;;5011319;28;20473;-73
2020/12/24 00:04:44;;;;;;;3.58;0.70;;;11.20;99.90;;;;;;5013462;28;20025;-72
2020/12/24 00:07:10;;;;;;;2.83;0.70;;;11.10;99.90;;;;;;5013421;28;20093;-73
2020/12/24 00:09:35;;;;;;;2.58;2.20;;;11.10;99.90;;;;;;4998573;28;20045;-74
2020/12/24 00:12:01;;;;;;;0.45;0.43;;;11.10;99.90;;;;;;4989535;28;20163;-73
2020/12/24 00:14:26;;;;;;;0.45;0.45;;;11.20;99.90;;;;;;5010682;28;20481;-73
2020/12/24 00:16:52;;;;;;;0.40;0.40;;;11.30;99.90;;;;;;5005730;28;20390;-73
2020/12/24 00:19:17;;;;;;;2.35;0.47;;;11.40;99.90;;;;;;5001718;28;20382;-73
2020/12/24 00:21:43;;;;;;;2.47;0.40;;;11.40;99.90;;;;;;4994121;28;20026;-72
2020/12/24 00:24:09;;;;;;;0.70;0.43;;;11.40;99.90;;;;;;5008077;28;20030;-72
2020/12/24 00:26:34;;;;;;;0.30;0.20;;;11.40;99.90;;;;;;4994844;28;20030;-71
2020/12/24 00:29:06;;;;;;;0.45;0.40;;;11.40;99.90;;;;;;5012935;28;20498;-72
2020/12/24 00:31:31;;;;;;;1.17;0.50;;;11.40;99.90;;;;;;5012865;28;20026;-73
2020/12/24 00:33:57;;;;;;;0.60;0.50;;;11.40;99.90;;;;;;4995409;28;20057;-74
2020/12/24 00:36:22;;;;;;;1.63;0.40;;;11.40;99.90;;;;;;4996709;28;20393;-74
2020/12/24 00:38:48;;;;;;;1.95;0.63;;;11.40;99.90;;;;;;5016827;28;20014;-73
2020/12/24 00:41:13;;;;;;;1.48;0.50;;;11.40;99.90;;;;;;4999236;28;20065;-74
2020/12/24 00:43:39;;;;;;;1.00;0.40;;;11.30;99.90;;;;;;5016709;28;20029;-72
2020/12/24 00:46:05;;;;;;;0.50;0.50;;;11.30;99.90;;;;;;5001107;28;20052;-75
2020/12/24 00:48:30;;;;;;;0.80;0.40;;;11.30;99.90;;;;;;5014624;28;20029;-73
2020/12/24 00:50:56;;;;;;;0.55;0.50;;;11.20;99.90;;;;;;4994270;28;20032;-73
2020/12/24 00:53:21;;;;;;;1.00;0.68;;;11.00;99.90;;;;;;5017440;28;20034;-73
2020/12/24 00:55:47;;;;;;;0.90;0.30;;;10.90;99.90;;;;;;5021451;28;20021;-74
2020/12/24 00:58:12;;;;;;;2.28;0.40;;;10.80;99.90;;;;;;5002093;28;20033;-74
2020/12/24 01:00:38;;;;;;;0.77;0.50;;;10.70;99.90;;;;;;5001120;28;20019;-74
2020/12/24 01:03:04;;;;;;;1.83;0.50;;;10.70;99.90;;;;;;5018331;28;20080;-71
2020/12/24 01:05:31;;;;;;;2.47;0.40;;;10.60;99.90;;;;;;5016085;28;20401;-72
2020/12/24 01:07:56;;;;;;;1.65;0.50;;;10.60;99.90;;;;;;5008367;28;20033;-74
2020/12/24 01:10:22;;;;;;;1.38;0.40;;;10.50;99.90;;;;;;5011827;28;20034;-74
2020/12/24 01:12:47;;;;;;;0.65;0.40;;;10.50;99.90;;;;;;5013749;28;20022;-73
2020/12/24 01:15:14;;;;;;;0.63;0.40;;;10.50;99.90;;;;;;4993836;28;20136;-74
2020/12/24 01:17:39;;;;;;;0.45;0.32;;;10.40;99.90;;;;;;5012887;28;20046;-74
2020/12/24 01:20:06;;;;;;;0.77;0.47;;;10.30;99.90;;;;;;4999852;28;20076;-77
2020/12/24 01:22:34;;;;;;;0.32;0.32;;;10.30;99.90;;;;;;5014956;28;20468;-72
2020/12/24 01:25:02;;;;;;;0.80;0.40;;;10.30;99.90;;;;;;5010216;28;20097;-73
2020/12/24 01:27:28;;;;;;;1.02;0.50;;;10.20;99.90;;;;;;5012319;28;20033;-73
2020/12/24 01:29:54;;;;;;;2.30;0.55;;;10.10;99.90;;;;;;5013459;28;20096;-74
2020/12/24 01:32:20;;;;;;;1.27;0.40;;;10.10;99.90;;;;;;5012211;28;20481;-72
2020/12/24 01:34:45;;;;;;;2.05;0.30;;;10.10;99.90;;;;;;5013201;28;20056;-73
2020/12/24 01:37:11;;;;;;;1.33;0.47;;;10.10;99.90;;;;;;5012454;28;20038;-73
2020/12/24 01:39:36;;;;;;;1.17;0.50;;;10.00;99.90;;;;;;5013567;28;20064;-74
2020/12/24 01:42:03;;;;;;;0.95;0.40;;;10.10;99.90;;;;;;5012769;28;20112;-74
2020/12/24 01:44:29;;;;;;;0.77;0.30;;;10.00;99.90;;;;;;5012290;28;20045;-73
2020/12/24 01:46:54;;;;;;;0.90;0.63;;;9.90;99.90;;;;;;5012506;28;20030;-73
2020/12/24 01:49:20;;;;;;;1.25;0.50;;;9.90;99.90;;;;;;5011907;28;20030;-73
2020/12/24 01:51:50;;;;;;;0.50;0.38;;;9.90;99.90;;;;;;5012703;28;20061;-72
2020/12/24 01:54:16;;;;;;;0.77;0.40;;;9.90;99.90;;;;;;5014949;28;20112;-72
2020/12/24 01:56:42;;;;;;;1.35;0.60;;;9.80;99.90;;;;;;5015683;28;20025;-73
2020/12/24 01:59:08;;;;;;;1.73;0.40;;;9.90;99.90;;;;;;5015611;28;20102;-73
2020/12/24 02:01:34;;;;;;;1.50;0.40;;;9.80;99.90;;;;;;4997476;28;20473;-73
2020/12/24 02:03:59;;;;;;;0.30;0.30;;;9.90;99.90;;;;;;4996989;28;20026;-72
2020/12/24 02:06:25;;;;;;;0.43;0.30;;;9.90;99.90;;;;;;5015853;28;20389;-73
2020/12/24 02:08:53;;;;;;;1.80;0.80;;;9.90;99.90;;;;;;5015293;28;20158;-74
2020/12/24 02:11:19;;;;;;;1.15;0.40;;;9.90;99.90;;;;;;5015697;28;20065;-74
2020/12/24 02:13:44;;;;;;;1.10;0.40;;;9.90;99.90;;;;;;4997734;28;20032;-74
2020/12/24 02:16:10;;;;;;;1.27;0.45;;;9.90;99.90;;;;;;5020187;28;20072;-74
2020/12/24 02:18:36;;;;;;;1.08;0.35;;;9.90;99.90;;;;;;5001295;28;20026;-73
2020/12/24 02:21:02;;;;;;;0.63;0.32;;;9.90;99.90;;;;;;5019098;28;20044;-73
2020/12/24 02:23:28;;;;;;;0.40;0.30;;;9.90;99.90;;;;;;5022405;28;20042;-72
2020/12/24 02:25:53;;;;;;;0.63;0.40;;;9.90;99.90;;;;;;5025212;28;20026;-74
2020/12/24 02:28:19;;;;;;;1.50;0.60;;;10.00;99.90;;;;;;5025531;28;20026;-72
2020/12/24 02:30:45;;;;;;;0.40;0.40;;;10.10;99.90;;;;;;5027516;28;20034;-72
2020/12/24 02:33:10;;;;;;;2.47;0.52;;;10.00;99.90;;;;;;5007974;28;20026;-71
2020/12/24 02:35:36;;;;;;;0.77;0.32;;;10.00;99.90;;;;;;5029352;28;20041;-71
2020/12/24 02:38:02;;;;;;;0.68;0.43;;;9.90;99.90;;;;;;5028908;28;20102;-72
2020/12/24 02:40:27;;;;;;;0.57;0.40;;;9.90;99.90;;;;;;5029205;28;20493;-73
2020/12/24 02:42:53;;;;;;;1.42;0.57;;;9.80;99.90;;;;;;5027961;28;20083;-73
2020/12/24 02:45:19;;;;;;;0.63;0.40;;;9.70;99.90;;;;;;5023329;28;20034;-71
2020/12/24 02:47:44;;;;;;;1.52;0.57;;;9.70;99.90;;;;;;5024528;28;20032;-72
2020/12/24 02:50:10;;;;;;;0.93;0.30;;;9.60;99.90;;;;;;5024759;28;20026;-74
2020/12/24 02:52:36;;;;;;;2.08;0.60;;;9.60;99.90;;;;;;5026178;28;20053;-72
2020/12/24 02:55:03;;;;;;;0.73;0.50;;;9.60;99.90;;;;;;5026584;28;20033;-71
2020/12/24 02:57:29;;;;;;;1.83;0.73;;;9.60;99.90;;;;;;5028285;28;20052;-72
2020/12/24 02:59:54;;;;;;;0.70;0.32;;;9.50;99.90;;;;;;5026083;28;20090;-73
2020/12/24 03:02:20;;;;;;;0.50;0.50;;;9.50;99.90;;;;;;5027712;28;20026;-73
2020/12/24 03:04:45;;;;;;;2.83;0.63;;;9.50;99.90;;;;;;5011194;28;20044;-71
2020/12/24 03:07:11;;;;;;;1.42;1.17;;;9.50;99.90;;;;;;5028177;28;20038;-71
2020/12/24 03:09:36;;;;;;;1.17;0.55;;;9.50;99.90;;;;;;5020759;28;20033;-74
2020/12/24 03:12:02;;;;;;;1.58;0.40;;;9.50;99.90;;;;;;5028216;28;20034;-72
2020/12/24 03:14:27;;;;;;;1.40;0.63;;;9.50;99.90;;;;;;5007759;28;20026;-72
2020/12/24 03:16:53;;;;;;;1.20;0.55;;;9.50;99.90;;;;;;5014097;28;20029;-72
2020/12/24 03:19:18;;;;;;;2.13;0.57;;;9.60;99.90;;;;;;5014315;28;20034;-72
2020/12/24 03:21:44;;;;;;;0.40;0.30;;;9.60;99.90;;;;;;5014256;28;20030;-73
2020/12/24 03:24:09;;;;;;;1.27;0.50;;;9.60;99.90;;;;;;5013718;28;20033;-70
2020/12/24 03:26:35;;;;;;;0.30;0.30;;;9.60;99.90;;;;;;4996211;28;20037;-73
2020/12/24 03:29:01;;;;;;;1.42;0.40;;;9.50;99.90;;;;;;5014654;28;20082;-73
2020/12/24 03:31:27;;;;;;;1.38;0.30;;;9.50;99.90;;;;;;5016748;28;20080;-73
2020/12/24 03:33:54;;;;;;;0.50;0.30;;;9.50;99.90;;;;;;5025740;28;20064;-71
2020/12/24 03:36:20;;;;;;;0.40;0.40;;;9.50;99.90;;;;;;5034267;28;20386;-72
2020/12/24 03:38:46;;;;;;;2.10;0.40;;;9.40;99.90;;;;;;5020127;28;20036;-73
2020/12/24 03:41:12;;;;;;;0.43;0.28;;;9.50;99.90;;;;;;5013468;28;20188;-72
2020/12/24 03:43:37;;;;;;;0.30;0.30;;;9.50;99.90;;;;;;5014138;28;20026;-75
2020/12/24 03:46:03;;;;;;;0.63;0.30;;;9.40;99.90;;;;;;5015024;28;20025;-73
2020/12/24 03:48:28;;;;;;;4.13;0.40;;;9.40;99.90;;;;;;5014797;28;20101;-72
2020/12/24 03:50:54;;;;;;;1.27;0.40;;;9.30;99.90;;;;;;5013717;28;20076;-72
2020/12/24 03:53:20;;;;;;;2.58;0.30;;;9.20;99.90;;;;;;5012972;28;20093;-73
2020/12/24 03:55:46;;;;;;;0.93;0.30;;;9.20;99.90;;;;;;5013669;28;20026;-72
2020/12/24 03:58:11;;;;;;;1.77;0.60;;;9.10;99.90;;;;;;4995114;28;20048;-73
2020/12/24 04:00:37;;;;;;;1.33;0.30;;;9.00;99.90;;;;;;5013250;28;20461;-72
2020/12/24 04:03:03;;;;;;;1.80;0.52;;;8.90;99.90;;;;;;5013070;28;20026;-72
2020/12/24 04:05:29;;;;;;;1.38;0.40;;;8.90;99.90;;;;;;5012953;28;20045;-71
2020/12/24 04:07:54;;;;;;;0.95;0.50;;;8.90;99.90;;;;;;5012941;28;20524;-73
2020/12/24 04:10:20;;;;;;;0.52;0.40;;;8.90;99.90;;;;;;5013036;28;20080;-70
2020/12/24 04:12:45;;;;;;;0.43;0.30;;;8.90;99.90;;;;;;4995654;28;20033;-72
2020/12/24 04:15:11;;;;;;;0.95;0.40;;;8.90;99.90;;;;;;5012994;28;20037;-72
2020/12/24 04:17:37;;;;;;;0.30;0.30;;;8.90;99.90;;;;;;5013141;28;20044;-72
2020/12/24 04:20:03;;;;;;;0.85;0.50;;;8.90;99.90;;;;;;5012843;28;20347;-74
2020/12/24 04:22:29;;;;;;;1.60;0.30;;;8.90;99.90;;;;;;5012253;28;20030;-72
2020/12/24 04:24:54;;;;;;;2.72;1.17;;;9.00;99.90;;;;;;5013047;28;20465;-72
2020/12/24 04:27:20;;;;;;;0.60;0.40;;;9.00;99.90;;;;;;4995846;28;20041;-72
2020/12/24 04:29:45;;;;;;;1.05;0.50;;;8.90;99.90;;;;;;5013055;28;20053;-72
2020/12/24 04:32:11;;;;;;;0.30;0.30;;;8.90;99.90;;;;;;5012900;28;20037;-71
2020/12/24 04:34:37;;;;;;;1.83;0.57;;;9.00;99.90;;;;;;5012813;28;20038;-75
2020/12/24 04:37:02;;;;;;;0.60;0.43;;;9.00;99.90;;;;;;5012945;28;20497;-73
2020/12/24 04:39:28;;;;;;;1.88;0.45;;;9.00;99.90;;;;;;5012360;28;20113;-73
2020/12/24 04:41:53;;;;;;;1.83;0.50;;;9.00;99.90;;;;;;4995214;28;20060;-72
2020/12/24 04:44:19;;;;;;;0.90;0.40;;;9.00;99.90;;;;;;5032961;28;20051;-73
2020/12/24 04:46:47;;;;;;;1.50;0.50;;;9.00;99.90;;;;;;5036750;28;20026;-75
2020/12/24 04:49:14;;;;;;;0.73;0.45;;;8.90;99.90;;;;;;5037115;28;20041;-75
2020/12/24 04:51:43;;;;;;;1.55;0.28;;;9.00;99.90;;;;;;5019454;28;20086;-74
2020/12/24 04:54:12;;;;;;;1.95;0.82;;;9.00;99.90;;;;;;5033270;28;20030;-74
2020/12/24 04:56:38;;;;;;;0.63;0.45;;;9.00;99.90;;;;;;5013567;28;20026;-71
2020/12/24 04:59:06;;;;;;;1.80;0.40;;;9.10;99.90;;;;;;5013139;28;20363;-72
2020/12/24 05:01:31;;;;;;;2.10;0.68;;;9.20;99.90;;;;;;5012641;28;20022;-72
2020/12/24 05:03:57;;;;;;;0.50;0.40;;;9.10;99.90;;;;;;5013108;28;20515;-72
2020/12/24 05:06:22;;;;;;;1.23;0.30;;;9.10;99.90;;;;;;5013739;28;20551;-72
2020/12/24 05:08:56;;;;;;;0.40;0.35;;;9.00;99.90;;;;;;5013855;28;20030;-72
2020/12/24 05:11:30;;;;;;;1.23;0.40;;;9.00;99.90;;;;;;5013196;28;20113;-71
2020/12/24 05:14:17;;;;;;;0.30;0.30;;;9.10;99.90;;;;;;4996160;28;20029;-71
2020/12/24 05:17:04;;;;;;;0.30;0.30;;;9.00;99.90;;;;;;4981312;28;20072;-72
2020/12/24 05:19:49;;;;;;;0.55;0.25;;;8.90;99.90;;;;;;5012052;28;20026;-72
2020/12/24 05:22:17;;;;;;;0.85;0.40;;;8.80;99.90;;;;;;5012731;28;20103;-72
2020/12/24 05:24:45;;;;;;;0.40;0.30;;;8.70;99.90;;;;;;5012313;28;20345;-72
2020/12/24 05:27:12;;;;;;;2.38;1.23;;;8.60;99.90;;;;;;5013103;28;20169;-72
2020/12/24 05:29:40;;;;;;;0.50;0.30;;;8.50;99.90;;;;;;5016029;28;20029;-72
2020/12/24 05:32:07;;;;;;;0.57;0.25;;;8.50;99.90;;;;;;5015978;28;20034;-72
2020/12/24 05:34:33;;;;;;;0.80;0.60;;;8.40;99.90;;;;;;5015658;28;20061;-73
2020/12/24 05:37:15;;;;;;;0.50;0.40;;;8.30;99.90;;;;;;4998273;28;20033;-75
2020/12/24 05:39:42;;;;;;;0.70;0.43;;;8.30;99.90;;;;;;4997757;28;20030;-72
2020/12/24 05:42:07;;;;;;;0.73;0.35;;;8.20;99.90;;;;;;5015560;28;20088;-71
2020/12/24 05:44:34;;;;;;;0.75;0.32;;;8.20;99.90;;;;;;5015876;28;20469;-73
2020/12/24 05:47:00;;;;;;;0.35;0.35;;;8.20;99.90;;;;;;4997951;28;20056;-71
2020/12/24 05:49:27;;;;;;;0.63;0.30;;;8.20;99.90;;;;;;5015820;28;20400;-72
2020/12/24 05:51:59;;;;;;;0.68;0.47;;;8.10;99.90;;;;;;5015797;28;20041;-72
2020/12/24 05:54:26;;;;;;;1.85;0.70;;;8.00;99.90;;;;;;5015152;28;20044;-72
2020/12/24 05:56:54;;;;;;;0.70;0.40;;;8.00;99.90;;;;;;4997491;28;20062;-74
2020/12/24 05:59:30;;;;;;;1.77;0.50;;;7.90;99.90;;;;;;5020448;28;20026;-74
2020/12/24 06:02:17;;;;;;;0.45;0.45;;;7.80;99.90;;;;;;4980003;28;20038;-71
2020/12/24 06:04:43;;;;;;;1.00;0.50;;;7.80;99.90;;;;;;5011222;28;20034;-73
2020/12/24 06:07:09;;;;;;;0.40;0.40;;;7.80;99.90;;;;;;5015100;28;20117;-71
2020/12/24 06:09:37;;;;;;;3.47;0.95;;;7.70;99.90;;;;;;4996952;28;20092;-71
2020/12/24 06:12:26;;;;;;;0.80;0.50;;;7.70;99.90;;;;;;5015568;28;20026;-71
2020/12/24 06:15:00;;;;;;;0.55;0.50;;;7.70;99.90;;;;;;5015035;28;20037;-73
2020/12/24 06:17:27;;;;;;;1.38;0.60;;;7.80;99.90;;;;;;5017228;28;20048;-72
2020/12/24 06:19:53;;;;;;;2.67;0.50;;;7.80;99.90;;;;;;5018577;28;20117;-72
2020/12/24 06:22:21;;;;;;;3.50;0.73;;;7.80;99.90;;;;;;5015425;28;20493;-73
2020/12/24 06:25:00;;;;;;;1.70;0.45;;;7.90;99.90;;;;;;5016429;28;20037;-72
2020/12/24 06:27:37;;;;;;;3.03;0.60;;;7.90;99.90;;;;;;5015845;28;20021;-72
2020/12/24 06:30:06;;;;;;;1.98;0.63;;;8.00;99.90;;;;;;5015238;28;20057;-72
2020/12/24 06:32:37;;;;;;;1.52;0.55;;;8.00;99.90;;;;;;5014497;28;20037;-72
2020/12/24 06:35:03;;;;;;;;;;;8.10;99.90;;;;;;5015767;28;20033;-72
2020/12/24 06:37:41;;;;;;;2.85;1.08;;;8.20;99.90;;;;;;5014561;28;19916;-72
2020/12/24 06:40:31;;;;;;;2.00;0.52;;;8.20;99.90;;;;;;5014545;28;20026;-72
2020/12/24 06:42:57;;;;;;;1.40;0.60;;;8.20;99.90;;;;;;5014315;28;20105;-72
2020/12/24 06:45:29;;;;;;;3.72;0.40;;;8.20;99.90;;;;;;5014629;28;20466;-73
2020/12/24 06:48:24;;;;;;;0.90;0.90;;;8.20;99.90;;;;;;5013696;28;20032;-72
2020/12/24 06:51:01;;;;;;;3.67;0.90;;;8.20;99.90;;;;;;5014174;28;20033;-72
2020/12/24 06:53:35;;;;;;;0.75;0.52;;;8.20;99.90;;;;;;5013874;28;20026;-73
2020/12/24 06:56:16;;;;;;;1.50;0.57;;;8.20;99.90;;;;;;4996564;28;20022;-71
2020/12/24 06:58:42;;;;;;;;;;;8.20;99.90;;;;;;5014302;28;20044;-72
2020/12/24 07:01:19;;;;;;;2.28;0.90;;;8.20;99.90;;;;;;5014037;28;19996;-72
2020/12/24 07:03:45;;;;;;;2.70;0.90;;;8.20;99.90;;;;;;4991866;28;20523;-71
2020/12/24 07:06:11;;;;;;;3.38;0.47;;;8.20;99.90;;;;;;5014102;28;20030;-73
2020/12/24 07:08:47;;;;;;;3.85;1.15;;;8.20;99.90;;;;;;5013666;28;20509;-72
2020/12/24 07:11:40;;;;;;;1.75;0.65;;;8.30;99.90;;;;;;4996209;28;20034;-73
2020/12/24 07:14:05;;;;;;;5.63;1.75;;;8.30;99.90;;;;;;5014021;28;20022;-73
2020/12/24 07:16:48;;;;;;;1.58;0.98;;;8.40;99.90;;;;;;5015434;28;20129;-71
2020/12/24 07:19:17;;;;;;;2.28;0.73;;;8.30;99.90;;;;;;5015459;28;20034;-72
2020/12/24 07:21:50;;;;;;;1.58;0.63;;;8.40;99.90;;;;;;5015238;28;20534;-73
2020/12/24 07:24:25;;;;;;;2.28;0.50;;;8.30;99.90;;;;;;4996768;28;20033;-71
2020/12/24 07:26:57;;;;;;;2.90;0.85;;;8.40;99.90;;;;;;5014911;28;20056;-73
2020/12/24 07:29:24;;;;;;;3.65;0.60;;;8.50;99.90;;;;;;5014374;28;20049;-71
2020/12/24 07:31:51;;;;;;;3.03;1.52;;;8.60;99.90;;;;;;5014407;28;20504;-75
2020/12/24 07:34:37;;;;;;;2.92;0.95;;;8.50;99.90;;;;;;5014770;28;20113;-73
2020/12/24 07:37:04;;;;;;;7.80;1.58;;;8.60;99.90;;;;;;5020819;28;20042;-71
2020/12/24 07:39:30;;;;;;;2.60;1.00;;;8.60;99.90;;;;;;5024201;28;20063;-73
2020/12/24 07:41:56;;;;;;;3.03;1.10;;;8.60;99.90;;;;;;5027612;28;20017;-72
2020/12/24 07:44:21;;;;;;;2.67;0.63;;;8.60;99.90;;;;;;5026758;28;20030;-71
2020/12/24 07:46:57;;;;;;;2.60;0.80;;;8.60;99.90;;;;;;5010192;28;20030;-73
2020/12/24 07:49:23;;;;;;;5.25;1.10;;;8.60;99.90;;;;;;5011815;28;20042;-75
2020/12/24 07:51:56;;;;;;;1.85;0.80;;;8.70;99.90;;;;;;5028421;28;20105;-72
2020/12/24 07:54:30;;;;;;;1.90;0.95;;;8.70;99.90;;;;;;5017774;28;20029;-72
2020/12/24 07:56:57;;;;;;;2.55;0.98;;;8.70;99.90;;;;;;5029483;28;20097;-72
2020/12/24 07:59:28;;;;;;;3.70;0.80;;;8.70;99.90;;;;;;5028883;28;20037;-72
2020/12/24 08:02:06;;;;;;;3.15;0.70;;;8.80;99.90;;;;;;5007548;28;20034;-72
2020/12/24 08:04:32;;;;;;;4.35;0.95;;;8.80;99.90;;;;;;5009519;28;20286;-72
2020/12/24 08:06:57;;;;;;;5.60;1.58;;;8.90;99.90;;;;;;5017003;28;20172;-72
2020/12/24 08:09:23;;;;;;;4.38;1.05;;;8.80;99.90;;;;;;5016213;28;20030;-72
2020/12/24 08:11:57;;;;;;;2.92;1.13;;;8.90;99.90;;;;;;5015934;28;20030;-73
2020/12/24 08:14:28;;;;;;;5.20;1.60;;;9.00;99.90;;;;;;5014101;28;20033;-72
2020/12/24 08:17:05;;;;;;;5.80;1.27;;;9.00;99.90;;;;;;4997249;28;20113;-72
2020/12/24 08:19:46;;;;;;;5.15;1.25;;;9.00;99.90;;;;;;5013195;28;20029;-72
2020/12/24 08:22:22;;;;;;;2.85;0.98;;;9.00;99.90;;;;;;4995168;28;20030;-72
2020/12/24 08:24:49;;;;;;;2.92;0.88;;;9.00;99.90;;;;;;5013025;28;20112;-73
2020/12/24 08:27:15;;;;;;;6.82;1.35;;;9.00;99.90;;;;;;5013995;28;20026;-72
2020/12/24 08:29:41;;;;;;;2.67;0.85;;;9.00;99.90;;;;;;5013710;28;20095;-72
2020/12/24 08:32:08;;;;;;;2.15;1.15;;;9.00;99.90;;;;;;5013461;28;20025;-74
2020/12/24 08:34:34;;;;;;;3.17;0.82;;;8.90;99.90;;;;;;5019797;28;20026;-72
2020/12/24 08:37:00;;;;;;;4.43;1.77;;;9.00;99.90;;;;;;5014779;28;20048;-73
2020/12/24 08:39:28;;;;;;;3.20;0.70;;;8.90;99.90;;;;;;5013435;28;20029;-71
2020/12/24 08:41:58;;;;;;;1.75;0.70;;;8.90;99.90;;;;;;5000723;28;20030;-73
2020/12/24 08:44:25;;;;;;;2.25;0.70;;;8.90;99.90;;;;;;5013621;28;20026;-74
2020/12/24 08:47:05;;;;;;;2.67;0.95;;;8.90;99.90;;;;;;5015864;28;20029;-71
2020/12/24 08:49:32;;;;;;;1.83;0.63;;;8.90;99.90;;;;;;5013058;28;20030;-73
2020/12/24 08:52:18;;;;;;;1.92;1.48;;;8.90;99.90;;;;;;5014312;28;20038;-71
2020/12/24 08:54:58;;;;;;;0.95;0.50;;;8.80;99.90;;;;;;5014156;28;20391;-72
2020/12/24 08:57:24;;;;;;;3.40;0.60;;;8.90;99.90;;;;;;4996329;28;20030;-72
2020/12/24 09:00:12;;;;;;;3.42;0.60;;;8.90;99.90;;;;;;5014256;28;20026;-72
2020/12/24 09:02:37;;;;;;;2.45;0.50;;;8.90;99.90;;;;;;4997047;28;20493;-72
2020/12/24 09:05:05;;;;;;;3.92;0.52;;;8.90;99.90;;;;;;5017503;28;20022;-73
2020/12/24 09:07:35;;;;;;;1.90;0.80;;;8.90;99.90;;;;;;5018773;28;20034;-75
2020/12/24 09:10:11;;;;;;;2.40;0.60;;;8.90;99.90;;;;;;5019992;28;20358;-73
2020/12/24 09:12:38;;;;;;;4.32;1.00;;;8.90;99.90;;;;;;5019366;28;20036;-74
2020/12/24 09:15:12;;;;;;;3.47;0.70;;;8.90;99.90;;;;;;5023867;28;20057;-72
2020/12/24 09:17:58;;;;;;;2.63;0.75;;;8.90;99.90;;;;;;4999581;28;20021;-75
2020/12/24 09:20:28;;;;;;;0.77;0.55;;;8.90;99.90;;;;;;5030816;28;20482;-71
2020/12/24 09:22:56;;;;;;;3.75;0.65;;;8.90;99.90;;;;;;5025517;28;20022;-73
2020/12/24 09:25:27;;;;;;;3.28;0.55;;;8.90;99.90;;;;;;5021813;28;20030;-72
2020/12/24 09:27:53;;;;;;;0.40;0.40;;;8.90;99.90;;;;;;5017687;28;20049;-73
2020/12/24 09:30:19;;;;;;;1.38;0.57;;;8.90;99.90;;;;;;5019462;28;20041;-73
2020/12/24 09:32:52;;;;;;;2.40;0.50;;;9.00;99.90;;;;;;5025255;28;20037;-71
2020/12/24 09:35:17;;;;;;;1.20;0.40;;;8.90;99.90;;;;;;5027199;28;20022;-73
2020/12/24 09:37:44;;;;;;;2.47;0.80;;;9.00;99.90;;;;;;5021442;28;20041;-72
2020/12/24 09:40:10;;;;;;;1.95;0.57;;;9.00;99.90;;;;;;5007380;28;20030;-73
2020/12/24 09:42:35;;;;;;;0.80;0.57;;;9.00;99.90;;;;;;5022910;28;20026;-71
2020/12/24 09:45:01;;;;;;;1.77;1.00;;;9.00;99.90;;;;;;5016815;28;20489;-72
2020/12/24 09:47:26;;;;;;;1.73;0.60;;;9.00;99.90;;;;;;5015739;28;20444;-72
2020/12/24 09:49:52;;;;;;;3.00;0.50;;;9.10;99.90;;;;;;5016512;28;20436;-73
2020/12/24 09:52:17;;;;;;;2.47;0.63;;;9.10;99.90;;;;;;5017949;28;20030;-72
2020/12/24 09:54:43;;;;;;;0.47;0.40;;;9.10;99.90;;;;;;5017678;28;20026;-72
2020/12/24 09:57:08;;;;;;;1.23;0.60;;;9.10;99.90;;;;;;5017126;28;20030;-74
2020/12/24 09:59:34;;;;;;;1.35;0.52;;;9.20;99.90;;;;;;5015086;28;20029;-73
2020/12/24 10:01:59;;;;;;;2.28;0.50;;;9.20;99.90;;;;;;5015459;28;20413;-73
2020/12/24 10:04:25;;;;;;;2.20;0.68;;;9.30;99.90;;;;;;5015299;28;20034;-73
2020/12/24 10:06:50;;;;;;;1.45;0.70;;;9.30;99.90;;;;;;5015169;28;20064;-72
2020/12/24 10:09:17;;;;;;;2.05;1.13;;;9.40;99.90;;;;;;5014936;28;20072;-70
2020/12/24 10:11:47;;;;;;;1.27;0.50;;;9.40;99.90;;;;;;5012130;28;20080;-74
2020/12/24 10:14:13;;;;;;;2.42;0.50;;;9.40;99.90;;;;;;5014722;28;20030;-75
2020/12/24 10:16:38;;;;;;;1.13;0.50;;;9.40;99.90;;;;;;5020417;28;20181;-70
2020/12/24 10:19:04;;;;;;;1.38;0.60;;;9.40;99.90;;;;;;4996871;28;20041;-70
2020/12/24 10:21:29;;;;;;;2.05;0.57;;;9.60;99.90;;;;;;5014733;28;20047;-70
2020/12/24 10:23:55;;;;;;;1.80;0.60;;;9.70;99.90;;;;;;5015240;28;20030;-70
2020/12/24 10:26:21;;;;;;;1.98;0.50;;;9.70;99.90;;;;;;4997865;28;20398;-70
2020/12/24 10:28:46;;;;;;;1.95;0.70;;;9.70;99.90;;;;;;4997424;28;20363;-71
2020/12/24 10:31:12;;;;;;;1.50;0.65;;;9.70;99.90;;;;;;5017063;28;20026;-70
2020/12/24 10:33:38;;;;;;;1.15;0.40;;;9.80;99.90;;;;;;4987992;28;20042;-70
2020/12/24 10:36:03;;;;;;;0.93;0.50;;;9.80;99.90;;;;;;5015268;28;20040;-70
2020/12/24 10:38:29;;;;;;;2.00;0.70;;;9.80;99.90;;;;;;5015120;28;20117;-70
2020/12/24 10:40:55;;;;;;;1.83;0.40;;;9.90;99.90;;;;;;5014435;28;20041;-72
2020/12/24 10:43:21;;;;;;;0.65;0.52;;;9.90;99.90;;;;;;4999678;28;20714;-69
2020/12/24 10:45:47;;;;;;;1.85;0.50;;;9.90;99.90;;;;;;5000466;28;20064;-72
2020/12/24 10:48:13;;;;;;;1.35;0.40;;;9.80;99.90;;;;;;5003757;28;20477;-71
2020/12/24 10:50:38;;;;;;;1.33;0.40;;;9.70;99.90;;;;;;5014861;28;20040;-70
2020/12/24 10:53:04;;;;;;;0.63;0.52;;;9.70;99.90;;;;;;5015440;28;20075;-69
2020/12/24 10:55:29;;;;;;;0.90;0.43;;;9.60;99.90;;;;;;4997385;28;20481;-71
2020/12/24 10:57:55;;;;;;;1.92;0.40;;;9.50;99.90;;;;;;5014564;28;20234;-71
2020/12/24 11:00:20;;;;;;;1.40;0.40;;;9.50;99.90;;;;;;5011903;28;20038;-72
2020/12/24 11:02:46;;;;;;;0.70;0.70;;;9.60;99.90;;;;;;4962011;28;20026;-71
2020/12/24 11:05:12;;;;;;;1.20;0.40;;;9.60;99.90;;;;;;5004257;28;20257;-70
2020/12/24 11:07:37;;;;;;;2.35;0.50;;;9.60;99.90;;;;;;4992851;28;20482;-70
2020/12/24 11:10:03;;;;;;;0.63;0.40;;;9.60;99.90;;;;;;5013959;28;20136;-73
2020/12/24 11:12:29;;;;;;;0.55;0.55;;;9.50;99.90;;;;;;4997824;28;20042;-71
2020/12/24 11:14:54;;;;;;;0.95;0.40;;;9.50;99.90;;;;;;4980381;28;20026;-71
2020/12/24 11:17:20;;;;;;;0.55;0.55;;;9.50;99.90;;;;;;5012322;28;20044;-70
2020/12/24 11:19:46;;;;;;;2.60;0.55;;;9.60;99.90;;;;;;5011757;28;20033;-69
2020/12/24 11:22:11;;;;;;;1.13;0.68;;;9.50;99.90;;;;;;5014114;28;20053;-72
2020/12/24 11:24:37;;;;;;;3.95;0.63;;;9.50;99.90;;;;;;5013644;28;20026;-71
2020/12/24 11:27:02;;;;;;;2.17;0.43;;;9.60;99.90;;;;;;5013486;28;20437;-70
2020/12/24 11:29:28;;;;;;;0.85;0.40;;;9.60;99.90;;;;;;5014592;28;20026;-70
2020/12/24 11:31:57;;;;;;;1.85;0.40;;;9.80;99.90;;;;;;4993952;28;20410;-72
2020/12/24 11:34:23;;;;;;;0.60;0.50;;;9.80;99.90;;;;;;5013839;28;20402;-72
2020/12/24 11:36:49;;;;;;;1.95;0.65;;;9.80;99.90;;;;;;4991725;28;20026;-71
2020/12/24 11:39:14;;;;;;;0.50;0.50;;;9.80;99.90;;;;;;5012420;28;20026;-73
2020/12/24 11:41:40;;;;;;;0.55;0.40;;;9.90;99.90;;;;;;5019731;28;20034;-71
2020/12/24 11:44:05;;;;;;;0.75;0.40;;;9.90;99.90;;;;;;5035438;28;20029;-70
2020/12/24 11:46:31;;;;;;;1.65;0.90;;;9.90;99.90;;;;;;5036025;28;20045;-72
2020/12/24 11:48:57;;;;;;;1.38;1.27;;;10.00;99.90;;;;;;5035970;28;20088;-70
2020/12/24 11:51:23;;;;;;;0.90;0.47;;;10.00;99.90;;;;;;5016894;28;20044;-69
2020/12/24 11:53:49;;;;;;;0.60;0.40;;;9.90;99.90;;;;;;5029412;28;20409;-71
2020/12/24 11:56:16;;;;;;;0.65;0.40;;;9.90;99.90;;;;;;5018521;28;20034;-72
2020/12/24 11:58:43;;;;;;;0.57;0.43;;;9.90;99.90;;;;;;5003272;28;20032;-72
2020/12/24 12:01:11;;;;;;;0.98;0.40;;;10.00;99.90;;;;;;5014360;28;20032;-70
2020/12/24 12:03:37;;;;;;;0.88;0.47;;;10.00;99.90;;;;;;4997178;28;20021;-73
2020/12/24 12:06:04;;;;;;;0.82;0.30;;;10.00;99.90;;;;;;5014713;28;20639;-73
2020/12/24 12:08:30;;;;;;;1.42;0.50;;;10.00;99.90;;;;;;5014626;28;20026;-73
2020/12/24 12:10:57;;;;;;;3.00;0.50;;;10.10;99.90;;;;;;5014754;28;20048;-72
2020/12/24 12:13:23;;;;;;;1.23;0.35;;;10.20;99.90;;;;;;5003910;28;20029;-70
2020/12/24 12:15:48;;;;;;;0.90;0.40;;;10.20;99.90;;;;;;5013295;28;20527;-70
2020/12/24 12:18:14;;;;;;;1.00;0.40;;;10.20;99.90;;;;;;5013660;28;20182;-72
2020/12/24 12:20:41;;;;;;;1.08;0.73;;;10.20;99.90;;;;;;4999238;28;20164;-71
2020/12/24 12:23:07;;;;;;;0.52;0.30;;;10.20;99.90;;;;;;4991902;28;20023;-72
2020/12/24 12:25:32;;;;;;;1.05;0.55;;;10.10;99.90;;;;;;4994469;28;20074;-71
2020/12/24 12:27:58;;;;;;;0.38;0.30;;;10.00;99.90;;;;;;4979740;28;20482;-71
2020/12/24 12:30:23;;;;;;;0.35;0.35;;;10.00;99.90;;;;;;4977099;28;20038;-72
2020/12/24 12:32:49;;;;;;;0.50;0.45;;;10.10;99.90;;;;;;4976736;28;20133;-72
2020/12/24 12:35:14;;;;;;;0.50;0.40;;;10.20;99.90;;;;;;4998800;28;20031;-72
2020/12/24 12:41:02;;;;;;;0.73;0.30;;;10.30;99.90;;;;;;5015318;28;20501;-70
2020/12/24 12:43:28;;;;;;;0.30;0.30;;;10.30;99.90;;;;;;5014585;28;20022;-72
2020/12/24 12:45:53;;;;;;;0.20;0.20;;;10.40;99.90;;;;;;4996172;28;20060;-72
2020/12/24 12:48:19;;;;;;;0.50;0.40;;;10.50;99.90;;;;;;5013803;28;20021;-72
2020/12/24 12:50:44;;;;;;;0.20;0.20;;;10.60;99.90;;;;;;5014018;28;20076;-72
2020/12/24 12:53:10;;;;;;;0.77;0.50;;;10.50;99.90;;;;;;5014935;28;20080;-71
2020/12/24 12:55:36;;;;;;;2.28;0.40;;;10.30;99.90;;;;;;5014487;28;20070;-71
2020/12/24 12:58:01;;;;;;;0.50;0.50;;;10.30;99.90;;;;;;5015718;28;20423;-71
2020/12/24 13:00:27;;;;;;;1.95;0.40;;;10.30;99.90;;;;;;5013676;28;20033;-72
2020/12/24 13:02:52;;;;;;;2.03;0.57;;;10.30;99.90;;;;;;5013111;28;20022;-72